SEJ2905 VABB-VAKE
Flight info
| Callsign | SEJ2905 |
|---|---|
| Flight time | 1h 1m |
| Altitude | 24000 |
| Route | ANOLI2A BETKU W61 LIGPI J86 KD |
| Aircraft | DH8D/M-SDE2E3FGRY/H |
Departure
| Time | 2026-04-26 13:39 |
|---|---|
| Airport | Chhatrapati Shivaji Maharaj International Airport (VABB) |
Arrival
| Time | 2026-04-26 14:41 |
|---|---|
| Airport | Kandla Airport (VAKE) |
| Time | Latitude | Longitude | Altitude | Speed | Heading |
|---|---|---|---|---|---|
| 2026-04-26 13:21 | 19.09172 | 72.85969 | 46 ft | 0 kts | 121° |
| 2026-04-26 13:26 | 19.09171 | 72.85969 | 45 ft | 0 kts | 121° |
| 2026-04-26 13:27 | 19.09173 | 72.85966 | 45 ft | 2 kts | 121° |
| 2026-04-26 13:27 | 19.09181 | 72.85952 | 45 ft | 2 kts | 121° |
| 2026-04-26 13:27 | 19.09186 | 72.85943 | 45 ft | 2 kts | 117° |
| 2026-04-26 13:27 | 19.09188 | 72.85928 | 45 ft | 2 kts | 75° |
| 2026-04-26 13:28 | 19.09181 | 72.85915 | 45 ft | 1 kts | 37° |
| 2026-04-26 13:28 | 19.09176 | 72.85912 | 45 ft | 0 kts | 29° |
| 2026-04-26 13:31 | 19.09199 | 72.85927 | 45 ft | 8 kts | 31° |
| 2026-04-26 13:31 | 19.09251 | 72.85960 | 45 ft | 8 kts | 30° |
| 2026-04-26 13:32 | 19.09302 | 72.85989 | 45 ft | 7 kts | 29° |
| 2026-04-26 13:32 | 19.09347 | 72.86016 | 45 ft | 7 kts | 29° |
| 2026-04-26 13:32 | 19.09389 | 72.86041 | 45 ft | 6 kts | 29° |
| 2026-04-26 13:32 | 19.09427 | 72.86063 | 45 ft | 5 kts | 31° |
| 2026-04-26 13:33 | 19.09462 | 72.86086 | 45 ft | 5 kts | 31° |
| 2026-04-26 13:33 | 19.09477 | 72.86118 | 45 ft | 5 kts | 99° |
| 2026-04-26 13:33 | 19.09450 | 72.86157 | 45 ft | 8 kts | 134° |
| 2026-04-26 13:33 | 19.09401 | 72.86210 | 45 ft | 11 kts | 134° |
| 2026-04-26 13:34 | 19.09339 | 72.86278 | 45 ft | 13 kts | 134° |
| 2026-04-26 13:34 | 19.09268 | 72.86355 | 45 ft | 15 kts | 134° |
| 2026-04-26 13:34 | 19.09189 | 72.86440 | 45 ft | 15 kts | 135° |
| 2026-04-26 13:34 | 19.09142 | 72.86491 | 45 ft | 14 kts | 134° |
| 2026-04-26 13:35 | 19.09058 | 72.86584 | 45 ft | 11 kts | 124° |
| 2026-04-26 13:35 | 19.09040 | 72.86663 | 45 ft | 10 kts | 90° |
| 2026-04-26 13:35 | 19.09041 | 72.86739 | 45 ft | 9 kts | 89° |
| 2026-04-26 13:35 | 19.09042 | 72.86810 | 45 ft | 9 kts | 89° |
| 2026-04-26 13:36 | 19.09043 | 72.86901 | 45 ft | 21 kts | 89° |
| 2026-04-26 13:36 | 19.09046 | 72.87098 | 45 ft | 27 kts | 89° |
| 2026-04-26 13:36 | 19.09048 | 72.87287 | 45 ft | 24 kts | 89° |
| 2026-04-26 13:36 | 19.09051 | 72.87467 | 45 ft | 24 kts | 89° |
| 2026-04-26 13:37 | 19.09053 | 72.87647 | 45 ft | 24 kts | 89° |
| 2026-04-26 13:37 | 19.09055 | 72.87770 | 45 ft | 10 kts | 89° |
| 2026-04-26 13:37 | 19.09005 | 72.87808 | 45 ft | 9 kts | 178° |
| 2026-04-26 13:37 | 19.08943 | 72.87808 | 45 ft | 8 kts | 181° |
| 2026-04-26 13:38 | 19.08892 | 72.87798 | 45 ft | 6 kts | 226° |
| 2026-04-26 13:38 | 19.08884 | 72.87768 | 45 ft | 0 kts | 268° |
| 2026-04-26 13:38 | 19.08884 | 72.87749 | 45 ft | 11 kts | 270° |
| 2026-04-26 13:38 | 19.08881 | 72.87501 | 45 ft | 73 kts | 269° |
| 2026-04-26 13:39 | 19.08869 | 72.86690 | 46 ft | 142 kts | 269° |
| 2026-04-26 13:39 | 19.08900 | 72.85568 | 277 ft | 161 kts | 273° |
| 2026-04-26 13:39 | 19.08968 | 72.84335 | 741 ft | 173 kts | 274° |
| 2026-04-26 13:39 | 19.08982 | 72.83031 | 1246 ft | 183 kts | 271° |
| 2026-04-26 13:40 | 19.08952 | 72.81669 | 1845 ft | 187 kts | 271° |
| 2026-04-26 13:40 | 19.08917 | 72.80306 | 2511 ft | 187 kts | 272° |
| 2026-04-26 13:40 | 19.08880 | 72.78946 | 3162 ft | 187 kts | 274° |
| 2026-04-26 13:40 | 19.08841 | 72.77579 | 3762 ft | 191 kts | 273° |
| 2026-04-26 13:41 | 19.08798 | 72.76154 | 4375 ft | 194 kts | 272° |
| 2026-04-26 13:41 | 19.08755 | 72.74734 | 4989 ft | 197 kts | 272° |
| 2026-04-26 13:41 | 19.09016 | 72.73338 | 5542 ft | 193 kts | 307° |
| 2026-04-26 13:41 | 19.10012 | 72.72420 | 6052 ft | 193 kts | 329° |
| 2026-04-26 13:42 | 19.11148 | 72.71666 | 6615 ft | 196 kts | 331° |
| 2026-04-26 13:42 | 19.12391 | 72.70899 | 6823 ft | 220 kts | 333° |
| 2026-04-26 13:42 | 19.13781 | 72.70097 | 7245 ft | 229 kts | 334° |
| 2026-04-26 13:42 | 19.15224 | 72.69295 | 7668 ft | 237 kts | 334° |
| 2026-04-26 13:43 | 19.16703 | 72.68495 | 8180 ft | 241 kts | 335° |
| 2026-04-26 13:43 | 19.18218 | 72.67691 | 8657 ft | 245 kts | 336° |
| 2026-04-26 13:43 | 19.19767 | 72.66880 | 9135 ft | 248 kts | 336° |
| 2026-04-26 13:43 | 19.21317 | 72.66076 | 9590 ft | 252 kts | 337° |
| 2026-04-26 13:44 | 19.22920 | 72.65250 | 10050 ft | 253 kts | 336° |
| 2026-04-26 13:44 | 19.24519 | 72.64429 | 10485 ft | 257 kts | 337° |
| 2026-04-26 13:44 | 19.26135 | 72.63602 | 10946 ft | 259 kts | 337° |
| 2026-04-26 13:44 | 19.27772 | 72.62769 | 11396 ft | 262 kts | 337° |
| 2026-04-26 13:45 | 19.29431 | 72.61925 | 11880 ft | 265 kts | 337° |
| 2026-04-26 13:45 | 19.31126 | 72.61066 | 12328 ft | 269 kts | 337° |
| 2026-04-26 13:45 | 19.32813 | 72.60210 | 12827 ft | 271 kts | 337° |
| 2026-04-26 13:45 | 19.34556 | 72.59328 | 13299 ft | 275 kts | 337° |
| 2026-04-26 13:46 | 19.36276 | 72.58456 | 13855 ft | 275 kts | 337° |
| 2026-04-26 13:46 | 19.38009 | 72.57580 | 14361 ft | 277 kts | 337° |
| 2026-04-26 13:46 | 19.39747 | 72.56700 | 14848 ft | 280 kts | 337° |
| 2026-04-26 13:46 | 19.41521 | 72.55802 | 15384 ft | 281 kts | 336° |
| 2026-04-26 13:47 | 19.43297 | 72.54903 | 15932 ft | 282 kts | 336° |
| 2026-04-26 13:47 | 19.45079 | 72.54001 | 16452 ft | 285 kts | 336° |
| 2026-04-26 13:47 | 19.46878 | 72.53091 | 16978 ft | 287 kts | 336° |
| 2026-04-26 13:47 | 19.48697 | 72.52170 | 17519 ft | 288 kts | 336° |
| 2026-04-26 13:48 | 19.50517 | 72.51249 | 18072 ft | 289 kts | 335° |
| 2026-04-26 13:48 | 19.52334 | 72.50327 | 18589 ft | 292 kts | 335° |
| 2026-04-26 13:48 | 19.54192 | 72.49386 | 19106 ft | 295 kts | 334° |
| 2026-04-26 13:48 | 19.56053 | 72.48443 | 19631 ft | 297 kts | 334° |
| 2026-04-26 13:49 | 19.57894 | 72.47510 | 20204 ft | 297 kts | 334° |
| 2026-04-26 13:49 | 19.59775 | 72.46555 | 20709 ft | 299 kts | 334° |
| 2026-04-26 13:49 | 19.61634 | 72.45612 | 21252 ft | 299 kts | 333° |
| 2026-04-26 13:49 | 19.63531 | 72.44650 | 21750 ft | 302 kts | 333° |
| 2026-04-26 13:50 | 19.65437 | 72.43683 | 22252 ft | 304 kts | 333° |
| 2026-04-26 13:50 | 19.67359 | 72.42707 | 22760 ft | 306 kts | 333° |
| 2026-04-26 13:50 | 19.69300 | 72.41721 | 23250 ft | 309 kts | 332° |
| 2026-04-26 13:50 | 19.71271 | 72.40720 | 23652 ft | 316 kts | 332° |
| 2026-04-26 13:51 | 19.73313 | 72.39681 | 23754 ft | 331 kts | 332° |
| 2026-04-26 13:51 | 19.75454 | 72.38590 | 23776 ft | 347 kts | 332° |
| 2026-04-26 13:51 | 19.77673 | 72.37460 | 23776 ft | 360 kts | 332° |
| 2026-04-26 13:51 | 19.79982 | 72.36285 | 23773 ft | 367 kts | 332° |
| 2026-04-26 13:52 | 19.82280 | 72.35113 | 23766 ft | 360 kts | 332° |
| 2026-04-26 13:52 | 19.84520 | 72.33971 | 23766 ft | 355 kts | 332° |
| 2026-04-26 13:52 | 19.86737 | 72.32842 | 23765 ft | 350 kts | 331° |
| 2026-04-26 13:52 | 19.88937 | 72.31722 | 23763 ft | 346 kts | 331° |
| 2026-04-26 13:53 | 19.91112 | 72.30613 | 23762 ft | 343 kts | 331° |
| 2026-04-26 13:53 | 19.93269 | 72.29514 | 23760 ft | 340 kts | 331° |
| 2026-04-26 13:53 | 19.95380 | 72.28438 | 23759 ft | 338 kts | 332° |
| 2026-04-26 13:53 | 19.97500 | 72.27356 | 23760 ft | 336 kts | 332° |
| 2026-04-26 13:54 | 19.99621 | 72.26275 | 23759 ft | 335 kts | 332° |
| 2026-04-26 13:54 | 20.01724 | 72.25202 | 23758 ft | 333 kts | 332° |
| 2026-04-26 13:54 | 20.03840 | 72.24122 | 23758 ft | 332 kts | 332° |
| 2026-04-26 13:55 | 20.08013 | 72.21992 | 23757 ft | 330 kts | 332° |
| 2026-04-26 13:55 | 20.09397 | 72.21285 | 23757 ft | 329 kts | 332° |
| 2026-04-26 13:55 | 20.14232 | 72.18815 | 23755 ft | 327 kts | 332° |
| 2026-04-26 13:56 | 20.16283 | 72.17767 | 23756 ft | 326 kts | 332° |
| 2026-04-26 13:56 | 20.18334 | 72.16718 | 23757 ft | 326 kts | 332° |
| 2026-04-26 13:56 | 20.20386 | 72.15669 | 23755 ft | 325 kts | 332° |
| 2026-04-26 13:56 | 20.22440 | 72.14619 | 23753 ft | 325 kts | 332° |
| 2026-04-26 13:57 | 20.24482 | 72.13573 | 23757 ft | 325 kts | 332° |
| 2026-04-26 13:57 | 20.26530 | 72.12525 | 23757 ft | 325 kts | 332° |
| 2026-04-26 13:57 | 20.28572 | 72.11480 | 23757 ft | 325 kts | 332° |
| 2026-04-26 13:57 | 20.30624 | 72.10429 | 23757 ft | 325 kts | 332° |
| 2026-04-26 13:58 | 20.32666 | 72.09383 | 23754 ft | 325 kts | 332° |
| 2026-04-26 13:58 | 20.34724 | 72.08329 | 23754 ft | 326 kts | 332° |
| 2026-04-26 13:58 | 20.36766 | 72.07282 | 23754 ft | 326 kts | 332° |
| 2026-04-26 13:58 | 20.38816 | 72.06231 | 23754 ft | 326 kts | 332° |
| 2026-04-26 13:59 | 20.40863 | 72.05181 | 23754 ft | 325 kts | 332° |
| 2026-04-26 13:59 | 20.42906 | 72.04134 | 23755 ft | 325 kts | 332° |
| 2026-04-26 13:59 | 20.44948 | 72.03085 | 23753 ft | 324 kts | 333° |
| 2026-04-26 14:00 | 20.50847 | 71.99624 | 23750 ft | 320 kts | 327° |
| 2026-04-26 14:00 | 20.52741 | 71.98356 | 23743 ft | 320 kts | 328° |
| 2026-04-26 14:00 | 20.53995 | 71.97516 | 23746 ft | 320 kts | 328° |
| 2026-04-26 14:01 | 20.56525 | 71.95824 | 23749 ft | 321 kts | 328° |
| 2026-04-26 14:01 | 20.58422 | 71.94558 | 23752 ft | 322 kts | 328° |
| 2026-04-26 14:01 | 20.60330 | 71.93285 | 23756 ft | 322 kts | 329° |
| 2026-04-26 14:01 | 20.62238 | 71.92012 | 23752 ft | 323 kts | 329° |
| 2026-04-26 14:02 | 20.64178 | 71.90717 | 23753 ft | 323 kts | 329° |
| 2026-04-26 14:02 | 20.66083 | 71.89447 | 23757 ft | 323 kts | 329° |
| 2026-04-26 14:02 | 20.67992 | 71.88173 | 23756 ft | 324 kts | 329° |
| 2026-04-26 14:02 | 20.69904 | 71.86897 | 23755 ft | 324 kts | 329° |
| 2026-04-26 14:03 | 20.71837 | 71.85607 | 23755 ft | 324 kts | 329° |
| 2026-04-26 14:03 | 20.73732 | 71.84342 | 23756 ft | 324 kts | 329° |
| 2026-04-26 14:03 | 20.75670 | 71.83048 | 23753 ft | 324 kts | 329° |
| 2026-04-26 14:03 | 20.77568 | 71.81780 | 23751 ft | 324 kts | 329° |
| 2026-04-26 14:04 | 20.79497 | 71.80492 | 23750 ft | 324 kts | 329° |
| 2026-04-26 14:04 | 20.81439 | 71.79195 | 23747 ft | 324 kts | 329° |
| 2026-04-26 14:04 | 20.83330 | 71.77930 | 23749 ft | 324 kts | 329° |
| 2026-04-26 14:04 | 20.85252 | 71.76646 | 23754 ft | 324 kts | 329° |
| 2026-04-26 14:05 | 20.87177 | 71.75358 | 23757 ft | 324 kts | 329° |
| 2026-04-26 14:05 | 20.89097 | 71.74074 | 23759 ft | 324 kts | 330° |
| 2026-04-26 14:05 | 20.91036 | 71.72776 | 23761 ft | 324 kts | 330° |
| 2026-04-26 14:05 | 20.92953 | 71.71493 | 23761 ft | 324 kts | 330° |
| 2026-04-26 14:06 | 20.94876 | 71.70205 | 23761 ft | 324 kts | 330° |
| 2026-04-26 14:06 | 20.96775 | 71.68884 | 23762 ft | 325 kts | 328° |
| 2026-04-26 14:06 | 20.98644 | 71.67524 | 23760 ft | 325 kts | 328° |
| 2026-04-26 14:06 | 21.00531 | 71.66150 | 23760 ft | 324 kts | 328° |
| 2026-04-26 14:07 | 21.02398 | 71.64793 | 23761 ft | 324 kts | 328° |
| 2026-04-26 14:07 | 21.04255 | 71.63443 | 23761 ft | 324 kts | 328° |
| 2026-04-26 14:07 | 21.06153 | 71.62066 | 23765 ft | 324 kts | 328° |
| 2026-04-26 14:07 | 21.08022 | 71.60709 | 23768 ft | 323 kts | 328° |
| 2026-04-26 14:08 | 21.09890 | 71.59355 | 23768 ft | 323 kts | 328° |
| 2026-04-26 14:08 | 21.11758 | 71.58000 | 23768 ft | 323 kts | 328° |
| 2026-04-26 14:08 | 21.13621 | 71.56650 | 23769 ft | 323 kts | 328° |
| 2026-04-26 14:08 | 21.15547 | 71.55347 | 23770 ft | 321 kts | 332° |
| 2026-04-26 14:09 | 21.17512 | 71.54167 | 23774 ft | 325 kts | 333° |
| 2026-04-26 14:09 | 21.19557 | 71.52958 | 23783 ft | 343 kts | 333° |
| 2026-04-26 14:09 | 21.21693 | 71.51691 | 23786 ft | 357 kts | 333° |
| 2026-04-26 14:09 | 21.23903 | 71.50372 | 23792 ft | 366 kts | 333° |
| 2026-04-26 14:10 | 21.26099 | 71.49050 | 23785 ft | 359 kts | 333° |
| 2026-04-26 14:10 | 21.28268 | 71.47742 | 23780 ft | 353 kts | 333° |
| 2026-04-26 14:10 | 21.30408 | 71.46452 | 23779 ft | 349 kts | 333° |
| 2026-04-26 14:10 | 21.32538 | 71.45167 | 23784 ft | 344 kts | 333° |
| 2026-04-26 14:11 | 21.36698 | 71.42660 | 23785 ft | 338 kts | 333° |
| 2026-04-26 14:11 | 21.38750 | 71.41423 | 23786 ft | 335 kts | 333° |
| 2026-04-26 14:11 | 21.40809 | 71.40186 | 23799 ft | 349 kts | 333° |
| 2026-04-26 14:12 | 21.42977 | 71.38886 | 23785 ft | 354 kts | 333° |
| 2026-04-26 14:12 | 21.45132 | 71.37582 | 23781 ft | 349 kts | 333° |
| 2026-04-26 14:12 | 21.47239 | 71.36306 | 23777 ft | 344 kts | 333° |
| 2026-04-26 14:12 | 21.49318 | 71.35048 | 23773 ft | 341 kts | 333° |
| 2026-04-26 14:13 | 21.53452 | 71.32547 | 23769 ft | 334 kts | 333° |
| 2026-04-26 14:13 | 21.55484 | 71.31318 | 23774 ft | 331 kts | 333° |
| 2026-04-26 14:13 | 21.57495 | 71.30102 | 23780 ft | 329 kts | 333° |
| 2026-04-26 14:14 | 21.59481 | 71.28900 | 23782 ft | 327 kts | 333° |
| 2026-04-26 14:14 | 21.61463 | 71.27701 | 23781 ft | 325 kts | 333° |
| 2026-04-26 14:14 | 21.63434 | 71.26508 | 23787 ft | 323 kts | 333° |
| 2026-04-26 14:14 | 21.65396 | 71.25319 | 23791 ft | 321 kts | 333° |
| 2026-04-26 14:15 | 21.67356 | 71.24133 | 23790 ft | 320 kts | 333° |
| 2026-04-26 14:15 | 21.69305 | 71.22952 | 23791 ft | 318 kts | 333° |
| 2026-04-26 14:15 | 21.71230 | 71.21785 | 23792 ft | 317 kts | 333° |
| 2026-04-26 14:15 | 21.73152 | 71.20620 | 23790 ft | 316 kts | 333° |
| 2026-04-26 14:16 | 21.75075 | 71.19453 | 23792 ft | 315 kts | 333° |
| 2026-04-26 14:16 | 21.76980 | 71.18298 | 23795 ft | 313 kts | 333° |
| 2026-04-26 14:16 | 21.78884 | 71.17142 | 23796 ft | 312 kts | 333° |
| 2026-04-26 14:16 | 21.80806 | 71.15976 | 23794 ft | 311 kts | 333° |
| 2026-04-26 14:17 | 21.82693 | 71.14830 | 23794 ft | 310 kts | 333° |
| 2026-04-26 14:17 | 21.84597 | 71.13676 | 23810 ft | 319 kts | 333° |
| 2026-04-26 14:17 | 21.86607 | 71.12467 | 23810 ft | 338 kts | 333° |
| 2026-04-26 14:17 | 21.88704 | 71.11201 | 23801 ft | 353 kts | 333° |
| 2026-04-26 14:18 | 21.90888 | 71.09877 | 23803 ft | 365 kts | 333° |
| 2026-04-26 14:18 | 21.93123 | 71.08519 | 23802 ft | 369 kts | 333° |
| 2026-04-26 14:18 | 21.95334 | 71.07166 | 23800 ft | 360 kts | 333° |
| 2026-04-26 14:18 | 21.97507 | 71.05834 | 23797 ft | 352 kts | 333° |
| 2026-04-26 14:19 | 21.99640 | 71.04531 | 23791 ft | 346 kts | 333° |
| 2026-04-26 14:19 | 22.01707 | 71.03268 | 23792 ft | 341 kts | 333° |
| 2026-04-26 14:19 | 22.03780 | 71.02003 | 23794 ft | 336 kts | 333° |
| 2026-04-26 14:19 | 22.05809 | 71.00765 | 23797 ft | 332 kts | 333° |
| 2026-04-26 14:20 | 22.07827 | 70.99534 | 23797 ft | 329 kts | 333° |
| 2026-04-26 14:20 | 22.09833 | 70.98310 | 23704 ft | 329 kts | 333° |
| 2026-04-26 14:20 | 22.11856 | 70.97078 | 23395 ft | 335 kts | 333° |
| 2026-04-26 14:20 | 22.13906 | 70.95829 | 23022 ft | 342 kts | 333° |
| 2026-04-26 14:21 | 22.16013 | 70.94544 | 22625 ft | 349 kts | 333° |
| 2026-04-26 14:21 | 22.18154 | 70.93237 | 22219 ft | 354 kts | 333° |
| 2026-04-26 14:21 | 22.20322 | 70.91914 | 21804 ft | 359 kts | 332° |
| 2026-04-26 14:21 | 22.22518 | 70.90572 | 21389 ft | 363 kts | 332° |
| 2026-04-26 14:22 | 22.24740 | 70.89214 | 20967 ft | 367 kts | 332° |
| 2026-04-26 14:22 | 22.26960 | 70.87856 | 20547 ft | 370 kts | 332° |
| 2026-04-26 14:22 | 22.29233 | 70.86465 | 20105 ft | 373 kts | 332° |
| 2026-04-26 14:22 | 22.31506 | 70.85074 | 19674 ft | 375 kts | 332° |
| 2026-04-26 14:23 | 22.33780 | 70.83682 | 19241 ft | 378 kts | 332° |
| 2026-04-26 14:23 | 22.36080 | 70.82275 | 18808 ft | 381 kts | 332° |
| 2026-04-26 14:23 | 22.38359 | 70.80876 | 18352 ft | 371 kts | 332° |
| 2026-04-26 14:23 | 22.40579 | 70.79511 | 17935 ft | 361 kts | 332° |
| 2026-04-26 14:24 | 22.42766 | 70.78166 | 17518 ft | 353 kts | 332° |
| 2026-04-26 14:24 | 22.44876 | 70.76868 | 17113 ft | 347 kts | 332° |
| 2026-04-26 14:24 | 22.46965 | 70.75585 | 16719 ft | 341 kts | 332° |
| 2026-04-26 14:24 | 22.49028 | 70.74318 | 16327 ft | 336 kts | 332° |
| 2026-04-26 14:25 | 22.51053 | 70.73074 | 15941 ft | 332 kts | 332° |
| 2026-04-26 14:25 | 22.53061 | 70.71839 | 15562 ft | 327 kts | 332° |
| 2026-04-26 14:25 | 22.55023 | 70.70634 | 15181 ft | 324 kts | 332° |
| 2026-04-26 14:25 | 22.56984 | 70.69428 | 14809 ft | 320 kts | 332° |
| 2026-04-26 14:26 | 22.58917 | 70.68239 | 14447 ft | 316 kts | 331° |
| 2026-04-26 14:26 | 22.60846 | 70.67052 | 14082 ft | 313 kts | 331° |
| 2026-04-26 14:26 | 22.62717 | 70.65901 | 13719 ft | 311 kts | 331° |
| 2026-04-26 14:26 | 22.64596 | 70.64745 | 13360 ft | 308 kts | 331° |
| 2026-04-26 14:27 | 22.66480 | 70.63585 | 12992 ft | 306 kts | 331° |
| 2026-04-26 14:27 | 22.68324 | 70.62449 | 12637 ft | 303 kts | 331° |
| 2026-04-26 14:27 | 22.70164 | 70.61316 | 12293 ft | 301 kts | 331° |
| 2026-04-26 14:27 | 22.71979 | 70.60197 | 11944 ft | 299 kts | 331° |
| 2026-04-26 14:28 | 22.73803 | 70.59073 | 11596 ft | 297 kts | 330° |
| 2026-04-26 14:28 | 22.75591 | 70.57970 | 11256 ft | 294 kts | 330° |
| 2026-04-26 14:28 | 22.77362 | 70.56876 | 10919 ft | 292 kts | 330° |
| 2026-04-26 14:28 | 22.79135 | 70.55782 | 10580 ft | 291 kts | 330° |
| 2026-04-26 14:29 | 22.80892 | 70.54697 | 10245 ft | 289 kts | 330° |
| 2026-04-26 14:29 | 22.82637 | 70.53620 | 9914 ft | 287 kts | 330° |
| 2026-04-26 14:29 | 22.84372 | 70.52548 | 9580 ft | 285 kts | 330° |
| 2026-04-26 14:29 | 22.86089 | 70.51487 | 9253 ft | 284 kts | 330° |
| 2026-04-26 14:30 | 22.87829 | 70.50412 | 8922 ft | 282 kts | 330° |
| 2026-04-26 14:30 | 22.89533 | 70.49358 | 8598 ft | 280 kts | 329° |
| 2026-04-26 14:30 | 22.91224 | 70.48313 | 8271 ft | 279 kts | 329° |
| 2026-04-26 14:30 | 22.92912 | 70.47269 | 7947 ft | 278 kts | 329° |
| 2026-04-26 14:31 | 22.94590 | 70.46231 | 7623 ft | 273 kts | 329° |
| 2026-04-26 14:31 | 22.96200 | 70.45229 | 7305 ft | 262 kts | 329° |
| 2026-04-26 14:31 | 22.97753 | 70.44263 | 7006 ft | 251 kts | 329° |
| 2026-04-26 14:31 | 22.99239 | 70.43340 | 6725 ft | 240 kts | 329° |
| 2026-04-26 14:32 | 23.00674 | 70.42450 | 6449 ft | 229 kts | 329° |
| 2026-04-26 14:32 | 23.02023 | 70.41614 | 6191 ft | 218 kts | 329° |
| 2026-04-26 14:32 | 23.03343 | 70.40797 | 5945 ft | 214 kts | 329° |
| 2026-04-26 14:32 | 23.04631 | 70.39999 | 5700 ft | 210 kts | 329° |
| 2026-04-26 14:33 | 23.05891 | 70.39218 | 5459 ft | 206 kts | 328° |
| 2026-04-26 14:33 | 23.07138 | 70.38446 | 5228 ft | 205 kts | 328° |
| 2026-04-26 14:33 | 23.08395 | 70.37669 | 4994 ft | 209 kts | 328° |
| 2026-04-26 14:33 | 23.09677 | 70.36877 | 4752 ft | 214 kts | 328° |
| 2026-04-26 14:34 | 23.11007 | 70.36053 | 4500 ft | 219 kts | 328° |
| 2026-04-26 14:34 | 23.12354 | 70.35219 | 4241 ft | 225 kts | 328° |
| 2026-04-26 14:34 | 23.13720 | 70.34371 | 3983 ft | 230 kts | 328° |
| 2026-04-26 14:34 | 23.15129 | 70.33497 | 3709 ft | 232 kts | 327° |
| 2026-04-26 14:35 | 23.16436 | 70.32530 | 3432 ft | 219 kts | 311° |
| 2026-04-26 14:35 | 23.17266 | 70.31212 | 3228 ft | 201 kts | 298° |
| 2026-04-26 14:35 | 23.17947 | 70.29934 | 3036 ft | 189 kts | 298° |
| 2026-04-26 14:35 | 23.18586 | 70.28732 | 2855 ft | 177 kts | 298° |
| 2026-04-26 14:36 | 23.19205 | 70.27574 | 2698 ft | 176 kts | 298° |
| 2026-04-26 14:36 | 23.19821 | 70.26425 | 2526 ft | 176 kts | 298° |
| 2026-04-26 14:36 | 23.20440 | 70.25268 | 2353 ft | 176 kts | 298° |
| 2026-04-26 14:36 | 23.21026 | 70.24105 | 2235 ft | 170 kts | 289° |
| 2026-04-26 14:37 | 23.20961 | 70.22942 | 2220 ft | 149 kts | 243° |
| 2026-04-26 14:37 | 23.20372 | 70.22051 | 2196 ft | 141 kts | 237° |
| 2026-04-26 14:37 | 23.19766 | 70.21192 | 2115 ft | 142 kts | 237° |
| 2026-04-26 14:37 | 23.19148 | 70.20334 | 2019 ft | 145 kts | 237° |
| 2026-04-26 14:38 | 23.18513 | 70.19469 | 1941 ft | 146 kts | 237° |
| 2026-04-26 14:38 | 23.17872 | 70.18614 | 1894 ft | 142 kts | 236° |
| 2026-04-26 14:38 | 23.17252 | 70.17796 | 1832 ft | 137 kts | 237° |
| 2026-04-26 14:38 | 23.16839 | 70.17246 | 1622 ft | 147 kts | 237° |
| 2026-04-26 14:39 | 23.15907 | 70.16013 | 1100 ft | 162 kts | 234° |
| 2026-04-26 14:39 | 23.15194 | 70.15095 | 916 ft | 153 kts | 234° |
| 2026-04-26 14:39 | 23.14517 | 70.14238 | 743 ft | 147 kts | 233° |
| 2026-04-26 14:39 | 23.13834 | 70.13401 | 617 ft | 143 kts | 234° |
| 2026-04-26 14:40 | 23.13191 | 70.12574 | 498 ft | 141 kts | 234° |
| 2026-04-26 14:40 | 23.12556 | 70.11742 | 366 ft | 142 kts | 234° |
| 2026-04-26 14:40 | 23.11915 | 70.10912 | 200 ft | 143 kts | 234° |
| 2026-04-26 14:40 | 23.11306 | 70.10124 | 115 ft | 114 kts | 230° |
| 2026-04-26 14:41 | 23.10921 | 70.09631 | 111 ft | 37 kts | 230° |
| 2026-04-26 14:41 | 23.10846 | 70.09535 | 114 ft | 11 kts | 215° |
| 2026-04-26 14:41 | 23.10808 | 70.09489 | 114 ft | 11 kts | 338° |
| 2026-04-26 14:41 | 23.10903 | 70.09609 | 112 ft | 29 kts | 50° |
| 2026-04-26 14:42 | 23.10989 | 70.09718 | 110 ft | 26 kts | 50° |
| 2026-04-26 14:42 | 23.11113 | 70.09877 | 113 ft | 17 kts | 51° |
| 2026-04-26 14:42 | 23.11178 | 70.09963 | 115 ft | 14 kts | 49° |
| 2026-04-26 14:42 | 23.11238 | 70.10040 | 116 ft | 12 kts | 50° |
| 2026-04-26 14:43 | 23.11293 | 70.10111 | 115 ft | 12 kts | 50° |
| 2026-04-26 14:43 | 23.11349 | 70.10184 | 114 ft | 9 kts | 50° |
| 2026-04-26 14:43 | 23.11334 | 70.10243 | 113 ft | 10 kts | 139° |
| 2026-04-26 14:43 | 23.11277 | 70.10294 | 112 ft | 11 kts | 139° |
| 2026-04-26 14:44 | 23.11237 | 70.10332 | 111 ft | 5 kts | 140° |
| 2026-04-26 14:44 | 23.11230 | 70.10368 | 111 ft | 4 kts | 74° |
| 2026-04-26 14:44 | 23.11223 | 70.10389 | 110 ft | 0 kts | 138° |